Time;durP1;ratioP1;P1;durP2;ratioP2;P2;SDS_P1;SDS_P2;PMS_P1;PMS_P2;Temp;Humidity;BMP_temperature;BMP_pressure;BME280_temperature;BME280_humidity;BME280_pressure;Samples;Min_cycle;Max_cycle;Signal;HPM_P1;HPM_P2
2023/12/27 00:01:43;;;;;;;0.50;0.20;;;9.30;1.00;;;;;;5135460;27;20713;-57
2023/12/27 00:04:10;;;;;;;0.50;0.30;;;9.30;1.00;;;;;;5114385;27;20432;-56
2023/12/27 00:06:37;;;;;;;1.30;0.30;;;9.30;1.00;;;;;;5131189;27;20425;-57
2023/12/27 00:09:05;;;;;;;0.50;0.20;;;9.30;1.00;;;;;;5113686;27;20790;-58
2023/12/27 00:11:33;;;;;;;0.40;0.20;;;9.30;1.00;;;;;;5113611;28;20441;-57
2023/12/27 00:14:00;;;;;;;0.50;0.20;;;9.30;1.00;;;;;;5128226;27;20479;-57
2023/12/27 00:16:27;;;;;;;0.40;0.20;;;9.50;1.00;;;;;;5120062;27;20435;-59
2023/12/27 00:18:55;;;;;;;0.90;0.30;;;9.60;1.00;;;;;;5130362;27;20743;-57
2023/12/27 00:21:22;;;;;;;1.38;0.20;;;9.70;1.00;;;;;;5113451;28;20431;-60
2023/12/27 00:23:49;;;;;;;0.60;0.30;;;9.70;1.00;;;;;;5112360;28;20892;-57
2023/12/27 00:26:16;;;;;;;0.60;0.30;;;9.60;1.00;;;;;;5112489;28;20493;-58
2023/12/27 00:28:45;;;;;;;0.50;0.20;;;9.70;1.00;;;;;;5113533;28;20427;-58
2023/12/27 00:31:12;;;;;;;0.50;0.30;;;9.60;1.00;;;;;;5113462;28;20917;-58
2023/12/27 00:33:39;;;;;;;0.60;0.20;;;9.50;1.00;;;;;;5113737;28;20514;-58
2023/12/27 00:36:08;;;;;;;1.10;0.20;;;9.50;1.00;;;;;;5113738;28;20846;-58
2023/12/27 00:38:36;;;;;;;0.90;0.20;;;9.50;1.00;;;;;;5112803;28;20519;-57
2023/12/27 00:41:20;;;;;;;1.00;0.30;;;9.50;1.00;;;;;;5121434;27;20423;-59
2023/12/27 00:43:49;;;;;;;0.60;0.20;;;9.50;1.00;;;;;;5132366;27;20414;-57
2023/12/27 00:46:17;;;;;;;0.82;0.20;;;9.50;1.00;;;;;;5114954;28;20451;-57
2023/12/27 00:48:44;;;;;;;1.00;0.30;;;9.50;1.00;;;;;;5113056;28;20439;-58
2023/12/27 00:51:18;;;;;;;0.82;0.28;;;9.60;1.00;;;;;;5113327;28;20953;-57
2023/12/27 00:53:46;;;;;;;1.10;0.30;;;9.60;1.00;;;;;;5113828;28;20855;-57
2023/12/27 00:56:14;;;;;;;0.57;0.25;;;9.60;1.00;;;;;;5112709;28;20500;-57
2023/12/27 00:58:41;;;;;;;0.68;0.30;;;9.60;1.00;;;;;;5113652;28;20428;-56
2023/12/27 01:01:11;;;;;;;0.60;0.30;;;9.60;1.00;;;;;;5113451;28;20484;-58
2023/12/27 01:03:41;;;;;;;1.38;0.40;;;9.50;1.00;;;;;;5113611;28;20419;-58
2023/12/27 01:06:09;;;;;;;1.10;0.30;;;9.50;1.00;;;;;;5113337;28;20408;-57
2023/12/27 01:08:37;;;;;;;0.88;0.38;;;9.50;1.00;;;;;;5114431;28;20424;-57
2023/12/27 01:11:04;;;;;;;0.50;0.20;;;9.60;1.00;;;;;;5095834;28;20464;-58
2023/12/27 01:13:32;;;;;;;0.70;0.30;;;9.50;1.00;;;;;;5114686;28;20438;-59
2023/12/27 01:16:00;;;;;;;0.50;0.20;;;9.50;1.00;;;;;;5117810;28;20431;-58
2023/12/27 01:18:29;;;;;;;0.40;0.20;;;9.40;1.00;;;;;;5118139;28;20420;-58
2023/12/27 01:20:56;;;;;;;0.60;0.30;;;9.40;1.00;;;;;;5117454;28;20928;-58
2023/12/27 01:23:23;;;;;;;0.50;0.20;;;9.40;1.00;;;;;;5117447;28;20850;-59
2023/12/27 01:25:50;;;;;;;0.47;0.20;;;9.40;1.00;;;;;;5117840;28;20481;-59
2023/12/27 01:28:17;;;;;;;0.80;0.20;;;9.40;1.00;;;;;;5116557;28;20432;-56
2023/12/27 01:30:44;;;;;;;0.50;0.20;;;9.50;1.00;;;;;;5117166;28;20432;-56
2023/12/27 01:33:11;;;;;;;0.50;0.20;;;9.50;1.00;;;;;;5118194;28;20714;-58
2023/12/27 01:35:40;;;;;;;0.60;0.30;;;9.60;1.00;;;;;;5117888;28;20832;-58
2023/12/27 01:38:07;;;;;;;0.90;0.30;;;9.60;1.00;;;;;;5117879;28;20443;-58
2023/12/27 01:40:34;;;;;;;1.50;0.20;;;9.60;1.00;;;;;;5115370;28;20493;-57
2023/12/27 01:43:01;;;;;;;1.38;0.28;;;9.40;1.00;;;;;;5115512;28;20427;-57
2023/12/27 01:45:28;;;;;;;0.80;0.30;;;9.40;1.00;;;;;;5117010;28;20797;-56
2023/12/27 01:47:56;;;;;;;0.85;0.30;;;9.30;1.00;;;;;;5116313;28;20427;-57
2023/12/27 01:50:23;;;;;;;1.10;0.30;;;9.20;1.00;;;;;;5117027;28;20436;-58
2023/12/27 01:52:51;;;;;;;0.70;0.30;;;9.30;1.00;;;;;;5116630;28;20786;-58
2023/12/27 01:55:17;;;;;;;0.50;0.30;;;9.30;1.00;;;;;;5116153;28;20769;-57
2023/12/27 01:57:44;;;;;;;0.70;0.20;;;9.40;1.00;;;;;;5116887;28;20830;-59
2023/12/27 02:00:13;;;;;;;0.60;0.30;;;9.40;1.00;;;;;;5116438;28;20420;-58
2023/12/27 02:02:41;;;;;;;1.20;0.30;;;9.40;1.00;;;;;;5117274;28;20908;-58
2023/12/27 02:05:09;;;;;;;0.40;0.20;;;9.30;1.00;;;;;;5115417;28;20737;-58
2023/12/27 02:07:37;;;;;;;1.40;0.30;;;9.30;1.00;;;;;;5115632;28;20888;-58
2023/12/27 02:10:06;;;;;;;0.60;0.30;;;9.20;1.00;;;;;;5114859;28;20431;-59
2023/12/27 02:12:33;;;;;;;0.57;0.30;;;9.00;1.00;;;;;;5113387;28;20883;-57
2023/12/27 02:15:00;;;;;;;0.50;0.20;;;8.90;1.00;;;;;;5115169;28;20428;-58
2023/12/27 02:17:29;;;;;;;0.60;0.30;;;8.90;1.00;;;;;;5114259;28;20870;-57
2023/12/27 02:19:56;;;;;;;1.00;0.23;;;8.90;1.00;;;;;;5112769;28;21032;-56
2023/12/27 02:22:25;;;;;;;1.20;0.30;;;8.90;1.00;;;;;;5114494;28;20508;-58
2023/12/27 02:24:54;;;;;;;0.60;0.30;;;8.90;1.00;;;;;;5113918;28;20424;-56
2023/12/27 02:27:22;;;;;;;1.27;0.30;;;9.00;1.00;;;;;;5115802;28;20820;-58
2023/12/27 02:29:49;;;;;;;1.20;0.30;;;9.10;1.00;;;;;;5114324;28;20727;-59
2023/12/27 02:32:16;;;;;;;0.70;0.30;;;9.00;1.00;;;;;;5115629;28;20420;-57
2023/12/27 02:34:43;;;;;;;1.90;0.35;;;9.00;1.00;;;;;;5114020;28;20428;-57
2023/12/27 02:37:10;;;;;;;0.57;0.30;;;9.00;1.00;;;;;;5114517;28;20453;-56
2023/12/27 02:39:37;;;;;;;1.10;0.40;;;9.10;1.00;;;;;;5114608;28;20489;-56
2023/12/27 02:42:06;;;;;;;0.50;0.30;;;9.20;1.00;;;;;;5115727;28;20835;-57
2023/12/27 02:44:33;;;;;;;0.60;0.30;;;9.30;1.00;;;;;;5115267;28;20531;-56
2023/12/27 02:47:01;;;;;;;0.60;0.30;;;9.40;1.00;;;;;;5116213;28;20428;-57
2023/12/27 02:49:28;;;;;;;0.60;0.30;;;9.40;1.00;;;;;;5115316;28;20862;-57
2023/12/27 02:51:55;;;;;;;0.60;0.30;;;9.40;1.00;;;;;;5115327;28;20489;-57
2023/12/27 02:54:22;;;;;;;2.10;0.30;;;9.40;1.00;;;;;;5115059;28;20420;-56
2023/12/27 02:56:49;;;;;;;0.57;0.30;;;9.30;1.00;;;;;;5116434;28;20513;-54
2023/12/27 02:59:17;;;;;;;0.57;0.20;;;9.10;1.00;;;;;;5115254;28;20420;-57
2023/12/27 03:01:44;;;;;;;0.50;0.20;;;9.00;1.00;;;;;;5114306;28;20412;-56
2023/12/27 03:04:11;;;;;;;0.70;0.20;;;8.90;1.00;;;;;;5115966;28;20424;-57
2023/12/27 03:06:38;;;;;;;0.60;0.20;;;8.80;1.00;;;;;;5114338;28;20416;-55
2023/12/27 03:09:05;;;;;;;0.80;0.30;;;8.80;1.00;;;;;;5113256;28;20453;-57
2023/12/27 03:11:32;;;;;;;0.60;0.30;;;8.80;1.00;;;;;;5113624;28;20436;-58
2023/12/27 03:13:59;;;;;;;0.50;0.20;;;8.80;1.00;;;;;;5114436;28;20420;-58
2023/12/27 03:16:28;;;;;;;0.70;0.30;;;8.80;1.00;;;;;;5113129;28;20424;-58
2023/12/27 03:18:55;;;;;;;1.00;0.30;;;8.80;1.00;;;;;;5113569;28;20432;-58
2023/12/27 03:21:22;;;;;;;0.60;0.30;;;8.80;1.00;;;;;;5114107;28;20866;-58
2023/12/27 03:23:49;;;;;;;1.05;0.30;;;8.80;1.00;;;;;;5113409;28;20428;-57
2023/12/27 03:26:16;;;;;;;0.80;0.30;;;8.70;1.00;;;;;;5113882;28;20716;-59
2023/12/27 03:28:43;;;;;;;0.53;0.20;;;8.60;1.00;;;;;;5113859;28;20420;-57
2023/12/27 03:31:10;;;;;;;0.50;0.30;;;8.60;1.00;;;;;;5113851;28;20490;-57
2023/12/27 03:33:39;;;;;;;0.60;0.30;;;8.70;1.00;;;;;;5113274;28;20490;-58
2023/12/27 03:36:06;;;;;;;0.50;0.30;;;8.70;1.00;;;;;;5113744;28;20416;-58
2023/12/27 03:38:33;;;;;;;0.80;0.40;;;8.70;1.00;;;;;;5114896;28;20447;-57
2023/12/27 03:41:01;;;;;;;0.90;0.30;;;8.70;1.00;;;;;;5113755;28;20416;-58
2023/12/27 03:43:28;;;;;;;0.70;0.30;;;8.70;1.00;;;;;;5114532;28;20446;-58
2023/12/27 03:45:55;;;;;;;0.93;0.40;;;8.70;1.00;;;;;;5115676;28;20428;-57
2023/12/27 03:48:22;;;;;;;0.70;0.40;;;8.70;1.00;;;;;;5114296;28;20447;-58
2023/12/27 03:50:50;;;;;;;0.70;0.30;;;8.70;1.00;;;;;;5114561;28;20436;-57
2023/12/27 03:53:17;;;;;;;0.63;0.30;;;8.70;1.00;;;;;;5114784;28;20416;-57
2023/12/27 03:55:44;;;;;;;0.60;0.30;;;8.70;1.00;;;;;;5115283;28;20432;-57
2023/12/27 03:58:11;;;;;;;0.55;0.30;;;8.70;1.00;;;;;;5114462;28;20847;-58
2023/12/27 04:00:38;;;;;;;0.80;0.30;;;8.60;1.00;;;;;;5114827;28;20412;-58
2023/12/27 04:03:05;;;;;;;0.73;0.30;;;8.60;1.00;;;;;;5114664;28;20416;-58
2023/12/27 04:05:32;;;;;;;0.63;0.30;;;8.60;1.00;;;;;;5114871;28;20586;-58
2023/12/27 04:08:01;;;;;;;0.50;0.30;;;8.60;1.00;;;;;;5114603;28;20424;-59
2023/12/27 04:10:31;;;;;;;1.55;0.40;;;8.60;1.00;;;;;;5114677;28;20745;-58
2023/12/27 04:12:58;;;;;;;0.90;0.30;;;8.70;1.00;;;;;;5113268;28;20424;-58
2023/12/27 04:15:25;;;;;;;0.60;0.30;;;8.70;1.00;;;;;;5112238;28;20452;-57
2023/12/27 04:17:52;;;;;;;0.70;0.30;;;8.70;1.00;;;;;;5112842;28;20438;-57
2023/12/27 04:20:19;;;;;;;0.70;0.30;;;8.70;1.00;;;;;;5113470;28;20420;-58
2023/12/27 04:22:46;;;;;;;0.52;0.30;;;8.70;1.00;;;;;;5113224;28;20424;-57
2023/12/27 04:25:15;;;;;;;0.52;0.30;;;8.70;1.00;;;;;;5112844;28;20424;-58
2023/12/27 04:27:42;;;;;;;1.40;0.40;;;8.70;1.00;;;;;;5113121;28;20412;-58
2023/12/27 04:30:10;;;;;;;1.00;0.30;;;8.70;1.00;;;;;;5113819;28;20419;-56
2023/12/27 04:32:37;;;;;;;0.60;0.30;;;8.70;1.00;;;;;;5113849;28;20818;-57
2023/12/27 04:35:04;;;;;;;0.60;0.30;;;8.70;1.00;;;;;;5114357;28;20854;-58
2023/12/27 04:37:31;;;;;;;1.40;0.30;;;8.80;1.00;;;;;;5114102;28;20545;-57
2023/12/27 04:39:58;;;;;;;2.10;0.37;;;8.80;1.00;;;;;;5113803;28;20515;-58
2023/12/27 04:42:26;;;;;;;1.80;0.35;;;8.80;1.00;;;;;;5112840;28;20582;-57
2023/12/27 04:44:53;;;;;;;0.60;0.30;;;8.80;1.00;;;;;;5111533;28;20451;-57
2023/12/27 04:47:20;;;;;;;0.60;0.30;;;8.80;1.00;;;;;;5113292;28;20424;-58
2023/12/27 04:49:47;;;;;;;1.00;0.30;;;8.80;1.00;;;;;;5112961;28;20432;-57
2023/12/27 04:52:15;;;;;;;1.30;0.30;;;8.80;1.00;;;;;;5113569;28;20443;-58
2023/12/27 04:54:42;;;;;;;1.10;0.40;;;8.90;1.00;;;;;;5112982;28;20424;-56
2023/12/27 04:57:09;;;;;;;1.00;0.40;;;8.90;1.00;;;;;;5112499;28;20449;-57
2023/12/27 04:59:37;;;;;;;1.17;0.38;;;8.90;1.00;;;;;;5114196;28;20424;-57
2023/12/27 05:02:05;;;;;;;1.20;0.40;;;9.00;1.00;;;;;;5114295;28;20428;-57
2023/12/27 05:04:32;;;;;;;1.30;0.45;;;9.00;1.00;;;;;;5113715;28;20843;-56
2023/12/27 05:06:59;;;;;;;2.00;0.50;;;9.00;1.00;;;;;;5121295;28;20422;-57
2023/12/27 05:09:26;;;;;;;0.85;0.43;;;8.90;1.00;;;;;;5135250;28;20418;-57
2023/12/27 05:11:53;;;;;;;0.90;0.40;;;8.80;1.00;;;;;;5133393;28;20426;-56
2023/12/27 05:14:20;;;;;;;0.82;0.50;;;8.80;1.00;;;;;;5132324;28;20475;-58
2023/12/27 05:16:48;;;;;;;1.40;0.50;;;8.90;1.00;;;;;;5116940;28;20428;-58
2023/12/27 05:19:15;;;;;;;0.95;0.40;;;8.90;1.00;;;;;;5121966;28;20491;-57
2023/12/27 05:21:42;;;;;;;0.70;0.40;;;8.80;1.00;;;;;;5134011;28;20414;-58
2023/12/27 05:24:09;;;;;;;0.50;0.30;;;8.80;1.00;;;;;;5133680;28;20792;-58
2023/12/27 05:26:36;;;;;;;0.80;0.40;;;8.80;1.00;;;;;;5133861;28;20411;-57
2023/12/27 05:29:03;;;;;;;1.00;0.50;;;8.80;1.00;;;;;;5133488;28;20429;-57
2023/12/27 05:31:30;;;;;;;0.75;0.40;;;8.80;1.00;;;;;;5133356;28;20426;-58
2023/12/27 05:33:59;;;;;;;0.90;0.50;;;8.70;1.00;;;;;;5131981;28;20779;-57
2023/12/27 05:36:26;;;;;;;0.75;0.40;;;8.60;1.00;;;;;;5131286;28;20410;-57
2023/12/27 05:38:53;;;;;;;0.80;0.40;;;8.50;1.00;;;;;;5130926;28;20419;-57
2023/12/27 05:41:24;;;;;;;0.70;0.40;;;8.40;1.00;;;;;;5131967;28;20537;-56
2023/12/27 05:43:51;;;;;;;1.70;0.50;;;8.30;1.00;;;;;;5131649;28;20422;-57
2023/12/27 05:46:19;;;;;;;2.30;0.40;;;8.20;1.00;;;;;;5119550;28;20522;-57
2023/12/27 05:48:46;;;;;;;0.88;0.40;;;8.10;4.90;;;;;;5113173;28;20420;-57
2023/12/27 05:51:14;;;;;;;0.63;0.40;;;8.10;9.00;;;;;;5113476;28;20425;-58
2023/12/27 05:53:43;;;;;;;0.70;0.40;;;8.10;16.20;;;;;;5112575;28;20433;-57
2023/12/27 05:56:10;;;;;;;0.90;0.40;;;8.00;17.40;;;;;;5125507;28;20831;-57
2023/12/27 05:58:37;;;;;;;0.70;0.40;;;8.00;19.00;;;;;;5133241;27;20429;-56
2023/12/27 06:01:05;;;;;;;1.75;0.50;;;7.90;26.60;;;;;;5135797;27;20418;-57
2023/12/27 06:03:32;;;;;;;0.70;0.40;;;7.80;33.00;;;;;;5134220;27;20422;-58
2023/12/27 06:05:59;;;;;;;0.80;0.40;;;7.70;40.30;;;;;;5134807;27;20421;-56
2023/12/27 06:08:28;;;;;;;1.50;0.40;;;7.70;53.00;;;;;;5135699;27;20422;-57
2023/12/27 06:10:55;;;;;;;1.30;0.50;;;7.60;55.90;;;;;;5136044;27;20418;-54
2023/12/27 06:13:22;;;;;;;1.58;0.50;;;7.60;62.00;;;;;;5136470;27;20679;-58
2023/12/27 06:15:49;;;;;;;1.63;0.50;;;7.60;66.20;;;;;;5115002;27;20900;-57
2023/12/27 06:18:16;;;;;;;0.90;0.50;;;7.60;64.30;;;;;;5093735;28;20954;-57
2023/12/27 06:20:43;;;;;;;2.42;0.40;;;7.70;59.10;;;;;;5094728;28;20422;-58
2023/12/27 06:23:10;;;;;;;0.77;0.40;;;7.70;48.20;;;;;;5094417;28;20857;-58
2023/12/27 06:25:38;;;;;;;1.10;0.40;;;7.70;48.20;;;;;;5092627;28;20757;-57
2023/12/27 06:28:06;;;;;;;1.30;0.50;;;7.60;51.20;;;;;;5093176;28;20433;-58
2023/12/27 06:30:33;;;;;;;1.20;0.40;;;7.60;55.80;;;;;;5092912;28;20425;-57
2023/12/27 06:33:00;;;;;;;0.80;0.40;;;7.70;63.70;;;;;;5094811;28;20783;-58
2023/12/27 06:35:27;;;;;;;1.85;0.50;;;7.70;50.80;;;;;;5095371;28;20430;-58
2023/12/27 06:37:54;;;;;;;1.20;0.50;;;7.70;44.60;;;;;;5095578;28;20434;-58
2023/12/27 06:40:21;;;;;;;1.15;0.60;;;7.70;39.50;;;;;;5095965;28;20955;-58
2023/12/27 06:42:49;;;;;;;2.90;0.50;;;7.60;45.40;;;;;;5095608;28;20709;-59
2023/12/27 06:45:16;;;;;;;0.80;0.50;;;7.50;61.40;;;;;;5095628;28;21070;-57
2023/12/27 06:47:43;;;;;;;0.70;0.40;;;7.50;74.00;;;;;;5095025;28;20919;-58
2023/12/27 06:50:11;;;;;;;0.70;0.40;;;7.50;71.50;;;;;;5094250;28;20425;-58
2023/12/27 06:52:38;;;;;;;1.20;0.50;;;7.50;75.00;;;;;;5095066;28;20429;-58
2023/12/27 06:55:06;;;;;;;1.45;0.50;;;7.50;68.50;;;;;;5094566;28;20464;-57
2023/12/27 06:57:33;;;;;;;0.88;0.40;;;7.60;78.20;;;;;;5093729;28;20430;-57
2023/12/27 07:00:02;;;;;;;1.00;0.50;;;7.60;69.60;;;;;;5094907;28;20413;-58
2023/12/27 07:02:29;;;;;;;1.45;0.50;;;7.60;62.30;;;;;;5093143;28;20430;-57
2023/12/27 07:04:55;;;;;;;1.10;0.60;;;7.60;57.50;;;;;;5094331;28;20429;-57
2023/12/27 07:07:23;;;;;;;1.30;0.47;;;7.70;58.10;;;;;;5094062;28;20855;-57
2023/12/27 07:09:50;;;;;;;0.80;0.40;;;7.70;52.20;;;;;;5093691;28;20450;-56
2023/12/27 07:12:17;;;;;;;0.90;0.50;;;7.70;49.20;;;;;;5093732;28;20430;-57
2023/12/27 07:14:44;;;;;;;0.85;0.50;;;7.70;45.40;;;;;;5094770;28;20434;-55
2023/12/27 07:17:12;;;;;;;1.63;0.40;;;7.70;52.10;;;;;;5105660;28;20489;-56
2023/12/27 07:19:39;;;;;;;1.50;0.57;;;7.80;59.20;;;;;;5114726;28;20428;-55
2023/12/27 07:22:07;;;;;;;1.50;0.50;;;7.90;45.20;;;;;;5115899;28;20779;-54
2023/12/27 07:24:34;;;;;;;1.02;0.50;;;8.00;45.60;;;;;;5114438;28;20416;-55
2023/12/27 07:27:04;;;;;;;1.42;0.60;;;8.00;39.80;;;;;;5114704;28;20423;-55
2023/12/27 07:29:33;;;;;;;1.50;0.60;;;8.00;17.20;;;;;;5115385;28;20522;-54
2023/12/27 07:32:00;;;;;;;1.30;0.60;;;8.00;18.70;;;;;;5113611;28;20497;-57
2023/12/27 07:34:28;;;;;;;1.30;0.60;;;7.90;23.90;;;;;;5111172;28;20420;-56
2023/12/27 07:36:55;;;;;;;1.45;0.60;;;7.80;25.30;;;;;;5112476;28;20431;-56
2023/12/27 07:39:22;;;;;;;1.10;0.60;;;7.80;33.90;;;;;;5113183;28;20474;-56
2023/12/27 07:41:49;;;;;;;1.48;0.60;;;7.80;33.30;;;;;;5113385;28;20404;-56
2023/12/27 07:44:16;;;;;;;1.40;0.60;;;7.70;47.40;;;;;;5111558;28;20530;-57
2023/12/27 07:46:44;;;;;;;1.00;0.60;;;7.60;60.10;;;;;;5112567;28;20418;-56
2023/12/27 07:49:11;;;;;;;2.10;0.60;;;7.60;65.00;;;;;;5112377;28;20746;-54
2023/12/27 07:51:39;;;;;;;1.77;0.60;;;7.60;63.10;;;;;;5110914;28;20465;-54
2023/12/27 07:54:07;;;;;;;2.58;0.65;;;7.60;62.30;;;;;;5113379;28;20408;-53
2023/12/27 07:56:35;;;;;;;1.60;0.50;;;7.60;63.50;;;;;;5112396;28;20522;-53
2023/12/27 07:59:03;;;;;;;2.10;0.60;;;7.50;64.80;;;;;;5112257;28;20588;-52
2023/12/27 08:01:31;;;;;;;0.80;0.60;;;7.50;70.40;;;;;;5113602;28;20420;-54
2023/12/27 08:03:59;;;;;;;1.40;0.60;;;7.60;72.50;;;;;;5113008;28;20456;-53
2023/12/27 08:06:26;;;;;;;3.83;0.60;;;7.60;69.50;;;;;;5112601;28;20411;-54
2023/12/27 08:08:55;;;;;;;1.63;0.60;;;7.60;76.00;;;;;;5113942;28;20424;-56
2023/12/27 08:11:23;;;;;;;2.63;0.60;;;7.70;63.80;;;;;;5111760;28;20420;-54
2023/12/27 08:13:50;;;;;;;1.10;0.50;;;7.70;53.00;;;;;;5112395;28;20440;-55
2023/12/27 08:16:17;;;;;;;0.90;0.50;;;7.70;48.70;;;;;;5112542;28;20432;-57
2023/12/27 08:18:44;;;;;;;1.77;0.60;;;7.70;48.40;;;;;;5112389;28;20416;-55
2023/12/27 08:21:11;;;;;;;2.33;0.70;;;7.70;44.90;;;;;;5111947;28;20422;-57
2023/12/27 08:23:39;;;;;;;1.10;0.60;;;7.60;44.20;;;;;;5110478;28;20420;-56
2023/12/27 08:26:09;;;;;;;1.00;0.60;;;7.60;55.80;;;;;;5110904;28;20432;-56
2023/12/27 08:28:36;;;;;;;0.88;0.60;;;7.60;61.60;;;;;;5113425;28;20435;-57
2023/12/27 08:31:04;;;;;;;2.00;0.80;;;7.60;70.20;;;;;;5115062;27;20475;-54
2023/12/27 08:33:32;;;;;;;0.93;0.60;;;7.70;59.60;;;;;;5120308;27;20435;-54
2023/12/27 08:35:59;;;;;;;1.50;0.60;;;7.70;56.20;;;;;;5123464;27;20485;-55
2023/12/27 08:38:27;;;;;;;2.40;0.70;;;7.70;52.80;;;;;;5126877;27;20526;-55
2023/12/27 08:40:54;;;;;;;1.10;0.60;;;7.70;54.80;;;;;;5109232;28;20428;-51
2023/12/27 08:43:27;;;;;;;2.10;0.60;;;7.80;52.90;;;;;;5120225;27;20421;-54
2023/12/27 08:45:54;;;;;;;1.10;0.60;;;7.80;43.50;;;;;;5106004;28;20723;-54
2023/12/27 08:48:21;;;;;;;1.10;0.60;;;7.90;40.30;;;;;;5123434;28;20453;-56
2023/12/27 08:50:49;;;;;;;1.70;0.70;;;7.80;40.50;;;;;;5114832;28;20481;-56
2023/12/27 08:53:16;;;;;;;2.17;0.70;;;7.80;44.40;;;;;;5112898;28;20510;-52
2023/12/27 08:55:43;;;;;;;1.63;0.68;;;7.80;37.80;;;;;;5113194;28;20502;-54
2023/12/27 08:58:12;;;;;;;1.53;0.70;;;7.80;41.00;;;;;;5112980;28;20424;-55
2023/12/27 09:00:41;;;;;;;1.50;0.70;;;7.70;46.90;;;;;;5112856;28;20510;-54
2023/12/27 09:03:08;;;;;;;1.70;0.60;;;7.60;52.60;;;;;;5112467;28;20468;-52
2023/12/27 09:05:35;;;;;;;1.20;0.70;;;7.60;51.10;;;;;;5113070;28;20426;-55
2023/12/27 09:08:03;;;;;;;1.80;0.70;;;7.60;43.30;;;;;;5112507;28;20809;-52
2023/12/27 09:10:30;;;;;;;1.10;0.50;;;7.70;40.80;;;;;;5125059;28;20707;-54
2023/12/27 09:12:57;;;;;;;1.30;0.70;;;7.80;29.20;;;;;;5133220;28;20426;-55
2023/12/27 09:15:26;;;;;;;2.00;0.65;;;7.80;26.40;;;;;;5128519;28;20416;-56
2023/12/27 09:17:55;;;;;;;2.10;0.70;;;7.80;23.60;;;;;;5112957;28;20420;-54
2023/12/27 09:20:22;;;;;;;1.92;0.60;;;7.70;7.20;;;;;;5112439;28;20511;-55
2023/12/27 09:22:49;;;;;;;1.10;0.70;;;7.70;12.50;;;;;;5112364;28;20412;-56
2023/12/27 09:25:16;;;;;;;1.73;0.70;;;7.80;7.30;;;;;;5121878;28;20706;-53
2023/12/27 09:27:44;;;;;;;1.67;0.60;;;7.80;1.00;;;;;;5132832;28;20426;-55
2023/12/27 09:30:12;;;;;;;1.80;0.70;;;7.80;1.00;;;;;;5132465;28;20504;-51
2023/12/27 09:32:42;;;;;;;0.98;0.60;;;7.90;1.00;;;;;;5132043;28;20438;-52
2023/12/27 09:35:11;;;;;;;1.10;0.60;;;7.90;1.00;;;;;;5133269;27;20418;-56
2023/12/27 09:37:38;;;;;;;0.95;0.60;;;7.90;1.00;;;;;;5135245;27;20429;-58
2023/12/27 09:40:08;;;;;;;1.80;0.60;;;7.90;1.00;;;;;;5136137;27;20428;-58
2023/12/27 09:42:39;;;;;;;1.45;0.63;;;7.80;1.00;;;;;;5136249;27;20455;-57
2023/12/27 09:45:10;;;;;;;1.70;0.70;;;7.80;1.00;;;;;;5133534;27;20908;-62
2023/12/27 09:47:38;;;;;;;2.90;0.70;;;7.70;1.00;;;;;;5114923;28;20456;-56
2023/12/27 09:50:07;;;;;;;0.90;0.60;;;7.70;1.00;;;;;;5114719;28;20862;-54
2023/12/27 09:52:40;;;;;;;0.98;0.70;;;7.70;1.00;;;;;;5115188;28;20428;-56
2023/12/27 09:55:07;;;;;;;1.60;0.70;;;7.70;1.00;;;;;;5116822;28;20447;-55
2023/12/27 09:57:36;;;;;;;7.80;0.90;;;7.80;1.00;;;;;;5115812;28;20408;-52
2023/12/27 10:00:06;;;;;;;2.60;0.60;;;7.80;1.00;;;;;;5115496;28;20455;-53
2023/12/27 10:02:35;;;;;;;0.90;0.52;;;7.90;1.00;;;;;;5115517;28;20519;-54
2023/12/27 10:05:11;;;;;;;2.97;0.60;;;8.00;1.00;;;;;;5115236;28;20435;-55
2023/12/27 10:07:41;;;;;;;1.10;0.60;;;8.00;1.00;;;;;;5114993;28;20412;-55
2023/12/27 10:10:10;;;;;;;1.27;0.63;;;8.10;1.00;;;;;;5115207;28;20424;-55
2023/12/27 10:12:40;;;;;;;2.10;0.60;;;8.30;1.00;;;;;;5112918;28;20471;-51
2023/12/27 10:15:08;;;;;;;1.60;0.60;;;8.50;1.00;;;;;;5115617;28;20446;-54
2023/12/27 10:17:37;;;;;;;1.85;0.52;;;8.60;1.00;;;;;;5113891;28;20436;-54
2023/12/27 10:20:07;;;;;;;1.60;0.50;;;8.70;1.00;;;;;;5115445;28;20427;-55
2023/12/27 10:22:35;;;;;;;1.08;0.50;;;8.70;1.00;;;;;;5101295;27;20456;-55
2023/12/27 10:25:04;;;;;;;0.70;0.40;;;8.70;1.00;;;;;;5115204;28;20730;-50
2023/12/27 10:27:32;;;;;;;1.00;0.40;;;8.70;1.00;;;;;;5108697;28;20467;-52
2023/12/27 10:30:03;;;;;;;1.20;0.50;;;8.70;1.00;;;;;;5113923;28;20424;-55
2023/12/27 10:32:30;;;;;;;0.85;0.50;;;8.80;19.90;;;;;;5108032;28;20439;-54
2023/12/27 10:34:57;;;;;;;1.98;0.50;;;8.80;1.00;;;;;;5112761;28;20493;-55
2023/12/27 10:37:25;;;;;;;1.70;0.50;;;8.90;1.00;;;;;;5114247;28;20845;-54
2023/12/27 10:39:56;;;;;;;1.90;0.60;;;8.90;99.90;;;;;;5109358;28;20439;-54
2023/12/27 10:42:28;;;;;;;1.00;0.50;;;8.90;99.90;;;;;;5108208;28;20459;-54
2023/12/27 10:44:55;;;;;;;1.10;0.50;;;9.00;1.00;;;;;;5112864;28;20887;-55
2023/12/27 10:47:24;;;;;;;0.70;0.50;;;9.10;1.00;;;;;;5102922;27;20507;-55
2023/12/27 10:49:53;;;;;;;1.10;0.40;;;9.20;1.00;;;;;;5111856;27;20428;-54
2023/12/27 10:52:21;;;;;;;0.60;0.40;;;9.30;99.90;;;;;;5110448;28;20448;-57
2023/12/27 10:54:53;;;;;;;2.20;0.50;;;9.40;99.90;;;;;;5108070;28;20893;-56
2023/12/27 10:57:22;;;;;;;1.70;0.50;;;9.60;99.90;;;;;;5099193;27;20433;-54
2023/12/27 10:59:51;;;;;;;0.68;0.40;;;9.70;99.90;;;;;;5111521;28;20515;-55
2023/12/27 11:02:19;;;;;;;1.08;0.40;;;9.80;99.90;;;;;;5112367;27;20420;-55
2023/12/27 11:04:47;;;;;;;1.10;0.40;;;10.00;99.90;;;;;;5105953;27;20436;-57
2023/12/27 11:07:16;;;;;;;0.77;0.40;;;10.20;99.90;;;;;;5107011;28;20432;-56
2023/12/27 11:09:45;;;;;;;0.60;0.30;;;10.20;99.90;;;;;;5110682;28;20411;-53
2023/12/27 11:12:12;;;;;;;1.30;0.40;;;10.10;99.90;;;;;;5098903;28;20436;-52
2023/12/27 11:14:42;;;;;;;0.60;0.40;;;10.10;99.90;;;;;;5109111;28;20432;-52
2023/12/27 11:17:13;;;;;;;0.82;0.40;;;10.10;99.90;;;;;;5111274;28;20440;-55
2023/12/27 11:19:42;;;;;;;0.80;0.30;;;10.30;99.90;;;;;;5111463;28;21035;-53
2023/12/27 11:22:10;;;;;;;0.80;0.40;;;10.50;99.90;;;;;;5112129;28;20442;-56
2023/12/27 11:24:39;;;;;;;0.70;0.40;;;10.40;99.90;;;;;;5113181;28;20408;-54
2023/12/27 11:27:07;;;;;;;1.80;0.40;;;10.50;99.90;;;;;;5111877;28;20529;-57
2023/12/27 11:29:37;;;;;;;0.77;0.40;;;10.60;99.90;;;;;;5110095;28;20789;-53
2023/12/27 11:32:06;;;;;;;0.90;0.40;;;10.60;99.90;;;;;;5112720;27;20424;-54
2023/12/27 11:34:35;;;;;;;0.80;0.30;;;10.60;99.90;;;;;;5102586;28;20436;-53
2023/12/27 11:37:04;;;;;;;0.63;0.40;;;10.70;99.90;;;;;;5121939;27;20435;-54
2023/12/27 11:39:33;;;;;;;0.90;0.40;;;10.80;99.90;;;;;;5121433;27;20509;-54
2023/12/27 11:42:03;;;;;;;0.65;0.40;;;10.90;99.90;;;;;;5122591;27;20412;-54
2023/12/27 11:44:38;;;;;;;0.70;0.40;;;11.20;99.90;;;;;;5107627;28;20440;-56
2023/12/27 11:47:07;;;;;;;1.93;0.50;;;11.30;99.90;;;;;;5112706;28;20543;-56
2023/12/27 11:49:35;;;;;;;1.30;0.47;;;11.40;99.90;;;;;;5111361;28;20446;-55
2023/12/27 11:52:02;;;;;;;0.63;0.40;;;11.40;99.90;;;;;;5110153;28;20443;-54
2023/12/27 11:54:29;;;;;;;0.70;0.40;;;11.40;99.90;;;;;;5111036;28;20497;-56
2023/12/27 11:56:57;;;;;;;1.10;0.40;;;11.50;99.90;;;;;;5109298;27;20917;-52
2023/12/27 11:59:25;;;;;;;0.60;0.40;;;11.60;99.90;;;;;;5112123;28;20432;-53
2023/12/27 12:01:55;;;;;;;1.10;0.40;;;11.70;99.90;;;;;;5103340;28;20432;-53
2023/12/27 12:04:50;;;;;;;1.25;0.40;;;11.80;99.90;;;;;;5119274;27;20710;-55
2023/12/27 12:07:51;;;;;;;0.70;0.40;;;11.80;99.90;;;;;;5111270;28;20854;-52
2023/12/27 12:10:25;;;;;;;0.70;0.38;;;11.90;99.90;;;;;;5110154;28;20440;-55
2023/12/27 12:12:57;;;;;;;2.03;0.40;;;11.90;99.90;;;;;;5107315;28;20788;-54
2023/12/27 12:15:24;;;;;;;0.60;0.30;;;11.80;99.90;;;;;;5110807;28;20482;-55
2023/12/27 12:17:52;;;;;;;0.80;0.40;;;11.80;99.90;;;;;;5116369;27;20900;-51
2023/12/27 12:20:21;;;;;;;0.52;0.35;;;11.70;99.90;;;;;;5116286;27;20491;-53
2023/12/27 12:22:49;;;;;;;0.90;0.38;;;11.50;99.90;;;;;;5120048;27;20434;-51
2023/12/27 12:25:23;;;;;;;0.70;0.40;;;11.50;99.90;;;;;;5110821;28;20432;-54
2023/12/27 12:27:50;;;;;;;0.70;0.40;;;11.60;99.90;;;;;;5107981;28;20458;-54
2023/12/27 12:30:17;;;;;;;0.73;0.30;;;11.70;99.90;;;;;;5108814;28;20469;-54
2023/12/27 12:32:44;;;;;;;0.70;0.30;;;11.80;99.90;;;;;;5110747;28;20416;-53
2023/12/27 12:35:11;;;;;;;0.70;0.37;;;11.90;99.90;;;;;;5112127;28;20439;-54
2023/12/27 12:37:38;;;;;;;0.63;0.30;;;12.00;99.90;;;;;;5109749;28;20473;-54
2023/12/27 12:40:08;;;;;;;0.60;0.40;;;12.00;99.90;;;;;;5107560;28;20708;-53
2023/12/27 12:42:36;;;;;;;0.50;0.30;;;12.10;99.90;;;;;;5108090;28;20516;-53
2023/12/27 12:45:04;;;;;;;1.00;0.40;;;12.20;99.90;;;;;;5092926;28;20823;-56
2023/12/27 12:47:33;;;;;;;0.87;0.40;;;12.20;99.90;;;;;;5099605;28;20504;-57
2023/12/27 12:50:00;;;;;;;1.30;0.45;;;12.10;99.90;;;;;;5110258;28;20430;-56
2023/12/27 12:52:27;;;;;;;1.50;0.40;;;12.10;99.90;;;;;;5109557;28;20493;-55
2023/12/27 12:55:00;;;;;;;1.60;0.40;;;12.00;99.90;;;;;;5110100;28;20493;-52
2023/12/27 12:57:29;;;;;;;1.42;0.50;;;12.00;99.90;;;;;;5107603;28;20436;-51
2023/12/27 12:59:56;;;;;;;1.25;0.50;;;11.90;99.90;;;;;;5108599;28;20437;-54
2023/12/27 13:02:23;;;;;;;1.65;0.50;;;12.00;99.90;;;;;;5109914;28;20439;-52
2023/12/27 13:04:52;;;;;;;1.02;0.47;;;12.10;99.90;;;;;;5107243;28;20846;-50